createdAt,value
2022-12-29T00:01:38.817Z,95573.94
2022-12-29T00:06:40.485Z,95559.50
2022-12-29T00:11:42.176Z,95553.47
2022-12-29T00:16:45.839Z,95547.47
2022-12-29T00:21:47.449Z,95540.88
2022-12-29T00:27:11.245Z,95520.19
2022-12-29T00:32:12.809Z,95531.66
2022-12-29T00:37:14.448Z,95525.50
2022-12-29T00:42:15.977Z,95530.09
2022-12-29T00:47:18.876Z,95513.31
2022-12-29T00:52:20.507Z,95514.13
2022-12-29T00:57:22.308Z,95515.88
2022-12-29T01:02:24.064Z,95518.22
2022-12-29T01:07:25.759Z,95521.44
2022-12-29T01:12:27.341Z,95533.34
2022-12-29T01:17:29.244Z,95529.06
2022-12-29T01:22:30.807Z,95538.09
2022-12-29T01:27:32.395Z,95541.31
2022-12-29T01:32:34.312Z,95541.91
2022-12-29T01:37:35.923Z,95543.34
2022-12-29T01:42:37.785Z,95553.19
2022-12-29T01:47:50.687Z,95546.16
2022-12-29T01:53:08.424Z,95543.22
2022-12-29T01:58:12.300Z,95554.50
2022-12-29T02:03:14.772Z,95545.31
2022-12-29T02:08:16.491Z,95548.63
2022-12-29T02:13:19.558Z,95546.28
2022-12-29T02:18:36.294Z,95550.28
2022-12-29T02:23:56.985Z,95549.72
2022-12-29T02:29:16.790Z,95540.97
2022-12-29T02:34:28.117Z,95535.88
2022-12-29T02:39:49.407Z,95524.59
2022-12-29T02:45:21.193Z,95515.63
2022-12-29T02:50:50.991Z,95529.50
2022-12-29T02:55:52.954Z,95529.13
2022-12-29T03:01:24.141Z,95541.19
2022-12-29T03:07:16.479Z,95549.44
2022-12-29T03:12:51.200Z,95543.41
2022-12-29T03:17:59.767Z,95534.09
2022-12-29T03:23:04.081Z,95523.75
2022-12-29T03:28:19.503Z,95533.38
2022-12-29T03:33:26.321Z,95526.38
2022-12-29T03:38:36.867Z,95517.88
2022-12-29T03:43:38.756Z,95532.34
2022-12-29T03:48:40.885Z,95521.91
2022-12-29T03:53:44.027Z,95516.84
2022-12-29T03:58:45.723Z,95527.63
2022-12-29T04:03:52.504Z,95522.16
2022-12-29T04:08:55.830Z,95514.22
2022-12-29T04:13:57.535Z,95512.00
2022-12-29T04:19:01.451Z,95526.66
2022-12-29T04:24:03.186Z,95539.53
2022-12-29T04:29:07.633Z,95525.66
2022-12-29T04:34:28.582Z,95520.97
2022-12-29T04:39:30.409Z,95534.03
2022-12-29T04:44:32.641Z,95515.56
2022-12-29T04:49:46.450Z,95496.28
2022-12-29T04:55:17.552Z,95501.34
2022-12-29T05:00:20.971Z,95502.03
2022-12-29T05:05:22.813Z,95483.38
2022-12-29T05:10:26.009Z,95492.94
2022-12-29T05:15:29.263Z,95481.84
2022-12-29T05:20:31.004Z,95501.06
2022-12-29T05:25:33.104Z,95492.13
2022-12-29T05:30:49.997Z,95482.88
2022-12-29T05:35:52.884Z,95491.88
2022-12-29T05:40:55.656Z,95494.94
2022-12-29T05:46:26.383Z,95489.00
2022-12-29T05:51:39.229Z,95496.75
2022-12-29T05:56:40.982Z,95482.91
2022-12-29T06:01:44.245Z,95491.88
2022-12-29T06:06:47.553Z,95480.00
2022-12-29T06:11:57.761Z,95494.06
2022-12-29T06:17:01.470Z,95491.47
2022-12-29T06:22:04.148Z,95519.44
2022-12-29T06:27:08.992Z,95520.16
2022-12-29T06:32:11.262Z,95516.94
2022-12-29T06:37:17.364Z,95511.75
2022-12-29T06:42:19.053Z,95523.47
2022-12-29T06:47:32.106Z,95516.19
2022-12-29T06:52:33.816Z,95517.47
2022-12-29T06:57:35.570Z,95516.38
2022-12-29T07:02:38.431Z,95522.84
2022-12-29T07:07:40.251Z,95527.81
2022-12-29T07:12:41.994Z,95531.25
2022-12-29T07:17:43.772Z,95532.66
2022-12-29T07:22:45.387Z,95511.34
2022-12-29T07:27:47.140Z,95524.41
2022-12-29T07:32:48.827Z,95523.09
2022-12-29T07:37:50.532Z,95519.44
2022-12-29T07:42:52.210Z,95510.09
2022-12-29T07:48:01.639Z,95500.41
2022-12-29T07:53:03.854Z,95501.72
2022-12-29T07:58:05.594Z,95493.00
2022-12-29T08:03:07.160Z,95501.59
2022-12-29T08:08:08.681Z,95491.81
2022-12-29T08:13:10.253Z,95494.75
2022-12-29T08:18:11.729Z,95504.13
2022-12-29T08:23:13.269Z,95511.50
2022-12-29T08:28:14.789Z,95512.25
2022-12-29T08:33:16.550Z,95507.31
2022-12-29T08:38:18.091Z,95507.56
2022-12-29T08:43:19.633Z,95512.06
2022-12-29T08:48:21.264Z,95527.81
2022-12-29T08:53:22.788Z,95535.13
2022-12-29T08:58:25.047Z,95541.31
2022-12-29T09:04:03.798Z,95551.47
2022-12-29T09:08:49.114Z,95542.69
2022-12-29T09:13:51.020Z,95549.75
2022-12-29T09:18:52.490Z,95554.34
2022-12-29T09:23:54.051Z,95563.72
2022-12-29T09:28:55.839Z,95573.66
2022-12-29T09:33:57.403Z,95565.50
2022-12-29T09:38:58.896Z,95569.81
2022-12-29T09:44:13.028Z,95564.09
2022-12-29T09:49:19.834Z,95554.16
2022-12-29T09:54:55.169Z,95538.47
2022-12-29T10:00:16.512Z,95538.31
2022-12-29T10:05:40.340Z,95548.81
2022-12-29T10:10:57.403Z,95535.31
2022-12-29T10:16:10.624Z,95548.41
2022-12-29T10:21:45.883Z,95548.56
2022-12-29T10:26:50.754Z,95542.41
2022-12-29T10:32:00.473Z,95539.63
2022-12-29T10:37:10.962Z,95534.41
2022-12-29T10:42:20.256Z,95520.00
2022-12-29T10:47:30.085Z,95521.53
2022-12-29T10:52:34.192Z,95502.97
2022-12-29T10:57:41.751Z,95502.78
2022-12-29T11:03:04.762Z,95496.31
2022-12-29T11:08:13.339Z,95487.53
2022-12-29T11:13:19.373Z,95501.13
2022-12-29T11:18:38.331Z,95484.19
2022-12-29T11:23:42.475Z,95490.50
2022-12-29T11:29:13.089Z,95496.31
2022-12-29T11:34:35.606Z,95492.84
2022-12-29T11:39:47.708Z,95482.72
2022-12-29T11:44:51.819Z,95488.69
2022-12-29T11:49:56.502Z,95467.41
2022-12-29T11:54:58.520Z,95463.53
2022-12-29T12:00:03.634Z,95459.31
2022-12-29T12:05:19.775Z,95454.63
2022-12-29T12:10:28.891Z,95472.53
2022-12-29T12:15:45.860Z,95459.78
2022-12-29T12:21:06.747Z,95451.34
2022-12-29T12:26:22.114Z,95449.84
2022-12-29T12:31:42.486Z,95440.88
2022-12-29T12:36:58.259Z,95430.63
2022-12-29T12:42:39.258Z,95435.75
2022-12-29T12:47:52.859Z,95442.03
2022-12-29T12:53:19.051Z,95429.94
2022-12-29T12:58:36.902Z,95438.88
2022-12-29T13:04:09.393Z,95420.81
2022-12-29T13:09:42.057Z,95426.94
2022-12-29T13:15:09.906Z,95435.41
2022-12-29T13:20:33.174Z,95435.03
2022-12-29T13:25:50.498Z,95423.72
2022-12-29T13:31:16.642Z,95422.59
2022-12-29T13:36:44.410Z,95406.19
2022-12-29T13:41:55.152Z,95415.31
2022-12-29T13:47:00.300Z,95421.28
2022-12-29T13:52:25.678Z,95422.28
2022-12-29T13:57:46.613Z,95431.53
2022-12-29T14:02:57.580Z,95436.72
2022-12-29T14:08:02.704Z,95437.69
2022-12-29T14:13:14.071Z,95432.66
2022-12-29T14:18:20.442Z,95430.84
2022-12-29T14:23:36.711Z,95448.47
2022-12-29T14:28:41.220Z,95432.38
2022-12-29T14:34:08.401Z,95432.69
2022-12-29T14:39:30.109Z,95429.34
2022-12-29T14:44:32.127Z,95441.63
2022-12-29T14:49:42.534Z,95440.66
2022-12-29T14:54:47.179Z,95440.66
2022-12-29T14:59:54.327Z,95424.06
2022-12-29T15:05:00.729Z,95430.53
2022-12-29T15:10:12.786Z,95453.00
2022-12-29T15:15:38.751Z,95472.38
2022-12-29T15:20:40.339Z,95473.91
2022-12-29T15:25:55.889Z,95481.91
2022-12-29T15:31:03.917Z,95485.22
2022-12-29T15:36:13.009Z,95488.16
2022-12-29T15:42:02.746Z,95489.91
2022-12-29T15:47:06.410Z,95491.38
2022-12-29T15:52:11.679Z,95492.09
2022-12-29T15:57:26.908Z,95484.78
2022-12-29T16:02:29.095Z,95494.91
2022-12-29T16:07:39.179Z,95502.88
2022-12-29T16:12:43.160Z,95509.81
2022-12-29T16:17:49.558Z,95526.31
2022-12-29T16:22:56.265Z,95531.22
2022-12-29T16:27:59.842Z,95538.75
2022-12-29T16:33:03.979Z,95524.97
2022-12-29T16:38:19.092Z,95514.41
2022-12-29T16:43:28.699Z,95522.88
2022-12-29T16:48:32.055Z,95524.44
2022-12-29T16:53:39.908Z,95519.75
2022-12-29T16:58:51.508Z,95518.59
2022-12-29T17:04:05.051Z,95529.06
2022-12-29T17:09:31.841Z,95530.03
2022-12-29T17:26:00.744Z,95528.16
2022-12-29T17:31:10.785Z,95513.50
2022-12-29T17:36:21.420Z,95522.69
2022-12-29T17:41:25.384Z,95549.25
2022-12-29T17:46:28.648Z,95557.53
2022-12-29T17:51:31.674Z,95566.31
2022-12-29T17:56:36.352Z,95561.13
2022-12-29T18:01:45.438Z,95559.75
2022-12-29T18:06:50.733Z,95556.72
2022-12-29T18:11:56.386Z,95562.47
2022-12-29T18:17:07.311Z,95563.94
2022-12-29T18:22:10.188Z,95556.28
2022-12-29T18:27:16.352Z,95546.53
2022-12-29T18:32:18.787Z,95541.09
2022-12-29T18:37:20.895Z,95529.69
2022-12-29T18:42:22.843Z,95530.88
2022-12-29T18:47:24.608Z,95543.59
2022-12-29T18:52:26.453Z,95539.78
2022-12-29T18:57:28.234Z,95547.97
2022-12-29T19:02:30.840Z,95537.19
2022-12-29T19:07:32.843Z,95539.53
2022-12-29T19:12:34.615Z,95540.44
2022-12-29T19:17:36.367Z,95554.00
2022-12-29T19:22:38.127Z,95544.06
2022-12-29T19:27:39.950Z,95552.38
2022-12-29T19:32:42.318Z,95553.34
2022-12-29T19:37:43.880Z,95552.88
2022-12-29T19:42:45.774Z,95555.72
2022-12-29T19:47:49.593Z,95554.06
2022-12-29T19:52:57.339Z,95550.81
2022-12-29T19:58:06.137Z,95555.41
2022-12-29T20:03:07.842Z,95544.53
2022-12-29T20:08:09.500Z,95558.22
2022-12-29T20:13:11.003Z,95554.44
2022-12-29T20:18:14.436Z,95551.50
2022-12-29T20:23:16.461Z,95556.56
2022-12-29T20:28:18.052Z,95560.19
2022-12-29T20:33:19.725Z,95552.25
2022-12-29T20:38:21.420Z,95564.41
2022-12-29T20:43:22.885Z,95569.25
2022-12-29T20:48:24.537Z,95556.41
2022-12-29T20:53:27.389Z,95562.00
2022-12-29T20:58:29.075Z,95560.78
2022-12-29T21:03:30.938Z,95559.53
2022-12-29T21:08:33.036Z,95550.81
2022-12-29T21:13:35.158Z,95551.00
2022-12-29T21:18:36.786Z,95555.84
2022-12-29T21:23:39.232Z,95568.94
2022-12-29T21:28:41.986Z,95583.81
2022-12-29T21:33:43.564Z,95580.69
2022-12-29T21:38:45.274Z,95580.19
2022-12-29T21:43:47.747Z,95596.06
2022-12-29T21:48:50.266Z,95608.44
2022-12-29T21:54:00.486Z,95621.25
2022-12-29T21:59:02.485Z,95626.94
2022-12-29T22:04:04.560Z,95618.56
2022-12-29T22:09:06.570Z,95624.16
2022-12-29T22:14:08.305Z,95618.03
2022-12-29T22:19:10.533Z,95616.44
2022-12-29T22:24:13.968Z,95612.09
2022-12-29T22:29:16.282Z,95635.41
2022-12-29T22:34:18.851Z,95654.13
2022-12-29T22:39:20.909Z,95669.44
2022-12-29T22:44:24.499Z,95677.31
2022-12-29T22:49:26.254Z,95679.50
2022-12-29T22:54:27.875Z,95693.22
2022-12-29T22:59:29.548Z,95686.75
2022-12-29T23:09:52.993Z,95693.41
2022-12-29T23:14:54.661Z,95693.34
2022-12-29T23:19:56.451Z,95709.06
2022-12-29T23:24:58.349Z,95703.69
2022-12-29T23:30:00.110Z,95714.53
2022-12-29T23:35:01.807Z,95711.38
2022-12-29T23:40:03.810Z,95719.97
2022-12-29T23:45:06.305Z,95721.91
2022-12-29T23:50:08.871Z,95734.28
2022-12-29T23:55:11.199Z,95747.78
